Time;durP1;ratioP1;P1;durP2;ratioP2;P2;SDS_P1;SDS_P2;PMS_P1;PMS_P2;Temp;Humidity;BMP_temperature;BMP_pressure;BME280_temperature;BME280_humidity;BME280_pressure;Samples;Min_cycle;Max_cycle;Signal;HPM_P1;HPM_P2
2023/02/13 00:00:33;;;;;;;7.20;6.32;;;;;;;7.71;100.00;103292.66;6041548;23;20258;-72
2023/02/13 00:03:00;;;;;;;9.43;6.63;;;;;;;7.73;100.00;103288.28;6040626;23;20027;-72
2023/02/13 00:05:26;;;;;;;11.02;6.15;;;;;;;7.17;100.00;103196.72;6045271;23;20090;-71
2023/02/13 00:07:53;;;;;;;6.03;5.45;;;;;;;6.62;100.00;103097.41;6039557;23;20396;-72
2023/02/13 00:10:19;;;;;;;12.82;6.85;;;;;;;7.47;100.00;103259.50;6013182;23;20080;-71
2023/02/13 00:12:46;;;;;;;13.38;7.00;;;;;;;7.59;100.00;103260.38;6009751;23;20046;-71
2023/02/13 00:15:12;;;;;;;6.78;6.18;;;;;;;7.45;100.00;103233.38;6040477;23;20018;-72
2023/02/13 00:17:39;;;;;;;7.47;6.40;;;;;;;7.34;100.00;103215.06;6013308;23;20023;-71
2023/02/13 00:20:06;;;;;;;7.43;6.40;;;;;;;7.72;100.00;103268.28;6043967;23;20036;-71
2023/02/13 00:22:36;;;;;;;6.55;6.05;;;;;;;7.66;100.00;103263.91;6039515;23;20030;-71
2023/02/13 00:25:04;;;;;;;8.90;7.55;;;;;;;7.61;100.00;103254.31;5976211;23;20017;-71
2023/02/13 00:27:31;;;;;;;6.45;5.82;;;;;;;7.65;100.00;103269.97;6027440;23;20110;-71
2023/02/13 00:29:57;;;;;;;6.10;5.50;;;;;;;7.60;100.00;103269.13;6029162;23;20033;-71
2023/02/13 00:32:23;;;;;;;9.00;6.40;;;;;;;7.58;100.00;103268.25;6027995;23;20223;-71
2023/02/13 00:34:50;;;;;;;9.68;7.40;;;;;;;7.25;100.00;103208.94;5998626;23;20061;-71
2023/02/13 00:37:16;;;;;;;9.27;6.63;;;;;;;7.01;100.00;103160.16;6030585;23;20073;-71
2023/02/13 00:39:43;;;;;;;12.35;8.13;;;;;;;7.12;100.00;103188.03;6004069;23;20027;-71
2023/02/13 00:42:09;;;;;;;9.15;7.15;;;;;;;7.42;100.00;103222.03;6031218;23;20651;-72
2023/02/13 00:44:35;;;;;;;21.80;7.43;;;;;;;7.27;100.00;103195.00;6004511;23;20022;-71
2023/02/13 00:47:02;;;;;;;8.60;7.38;;;;;;;7.52;100.00;103247.34;6030901;23;20438;-71
2023/02/13 00:49:28;;;;;;;9.23;7.35;;;;;;;7.17;100.00;103181.06;6026397;23;20664;-71
2023/02/13 00:51:54;;;;;;;7.63;6.45;;;;;;;7.58;100.00;103248.19;6006895;23;20439;-71
2023/02/13 00:54:21;;;;;;;10.90;8.40;;;;;;;7.31;100.00;103209.81;5966744;23;20026;-71
2023/02/13 00:56:48;;;;;;;9.80;6.63;;;;;;;7.18;100.00;103190.66;6030585;23;20067;-72
2023/02/13 00:59:15;;;;;;;13.43;6.43;;;;;;;7.47;100.00;103251.66;6031041;23;20630;-72
2023/02/13 01:01:42;;;;;;;11.90;8.18;;;;;;;7.57;100.00;103249.06;6029780;23;20110;-71
2023/02/13 01:04:08;;;;;;;7.40;6.65;;;;;;;7.43;100.00;103223.78;6003989;23;20560;-72
2023/02/13 01:06:34;;;;;;;8.60;7.78;;;;;;;7.63;100.00;103252.56;6030094;23;20038;-73
2023/02/13 01:09:02;;;;;;;13.50;8.18;;;;;;;6.75;100.00;103109.59;6000466;23;20118;-70
2023/02/13 01:11:29;;;;;;;8.40;6.35;;;;;;;7.59;100.00;103247.31;6006837;23;20031;-70
2023/02/13 01:13:56;;;;;;;7.90;6.85;;;;;;;7.18;100.00;103195.03;6001162;23;20227;-71
2023/02/13 01:16:22;;;;;;;9.98;6.63;;;;;;;7.11;100.00;103183.66;6016916;23;20081;-71
2023/02/13 01:18:48;;;;;;;9.48;6.18;;;;;;;7.32;100.00;103222.03;6027387;23;20145;-71
2023/02/13 01:21:18;;;;;;;9.07;6.55;;;;;;;6.94;100.00;103154.91;6007547;23;20626;-71
2023/02/13 01:23:45;;;;;;;8.02;7.10;;;;;;;7.29;100.00;103213.31;6022925;23;20030;-71
2023/02/13 01:26:22;;;;;;;11.65;7.22;;;;;;;7.38;100.00;103242.09;6029946;23;20031;-72
2023/02/13 01:28:53;;;;;;;7.63;6.68;;;;;;;7.34;100.00;103219.44;6064689;23;20170;-71
2023/02/13 01:31:20;;;;;;;9.23;6.43;;;;;;;6.73;100.00;103127.00;6037342;23;20022;-71
2023/02/13 01:33:47;;;;;;;7.00;6.50;;;;;;;7.10;100.00;103191.53;6033400;23;20019;-71
2023/02/13 01:36:14;;;;;;;7.95;6.13;;;;;;;7.41;100.00;103239.47;6046811;23;20035;-71
2023/02/13 01:38:41;;;;;;;8.57;5.93;;;;;;;6.51;100.00;103086.06;6052534;23;20015;-71
2023/02/13 01:41:08;;;;;;;7.35;6.68;;;;;;;7.47;100.00;103239.47;6048382;23;20074;-71
2023/02/13 01:43:48;;;;;;;8.13;7.32;;;;;;;7.22;100.00;103195.88;6039881;23;20042;-72
2023/02/13 01:46:21;;;;;;;9.73;6.93;;;;;;;6.35;100.00;103054.75;6058368;23;20090;-72
2023/02/13 01:48:50;;;;;;;7.15;6.22;;;;;;;7.45;100.00;103240.34;6030698;23;20003;-72
2023/02/13 01:51:22;;;;;;;8.05;7.03;;;;;;;7.44;100.00;103234.25;6051427;23;20030;-70
2023/02/13 01:53:54;;;;;;;10.00;7.63;;;;;;;7.03;100.00;103163.63;6031955;23;19998;-71
2023/02/13 01:56:27;;;;;;;9.57;6.90;;;;;;;7.27;100.00;103217.66;6053753;23;20045;-71
2023/02/13 01:58:59;;;;;;;7.05;6.43;;;;;;;7.10;100.00;103187.16;6059157;23;20040;-71
2023/02/13 02:01:27;;;;;;;9.07;6.78;;;;;;;6.95;100.00;103168.84;6031670;23;20042;-71
2023/02/13 02:04:03;;;;;;;9.18;7.45;;;;;;;7.21;100.00;103202.84;6053719;23;20010;-71
2023/02/13 02:06:35;;;;;;;9.55;7.53;;;;;;;7.38;100.00;103232.50;6013926;23;20022;-71
2023/02/13 02:09:09;;;;;;;7.70;5.75;;;;;;;7.06;100.00;103182.81;6051484;23;20023;-72
2023/02/13 02:11:54;;;;;;;8.65;6.22;;;;;;;7.33;100.00;103228.13;6054662;23;20022;-73
2023/02/13 02:14:20;;;;;;;9.20;7.10;;;;;;;7.30;100.00;103238.59;6035295;23;20377;-72
2023/02/13 02:16:47;;;;;;;9.55;5.57;;;;;;;7.39;100.00;103236.84;6034519;23;20042;-71
2023/02/13 02:19:29;;;;;;;6.72;6.07;;;;;;;7.16;100.00;103200.22;6031617;23;20341;-71
2023/02/13 02:22:13;;;;;;;7.72;5.85;;;;;;;7.35;100.00;103240.31;6030056;23;20040;-71
2023/02/13 02:24:58;;;;;;;8.63;6.60;;;;;;;7.31;100.00;103237.69;6025267;23;20091;-70
2023/02/13 02:27:34;;;;;;;11.10;7.18;;;;;;;7.31;100.00;103237.69;6057210;23;20030;-73
2023/02/13 02:30:26;;;;;;;9.75;6.90;;;;;;;7.36;100.00;103235.97;6056224;23;20197;-71
2023/02/13 02:33:17;;;;;;;6.35;5.75;;;;;;;7.31;100.00;103240.31;6050621;23;20565;-71
2023/02/13 02:36:07;;;;;;;11.15;6.43;;;;;;;6.87;100.00;103175.78;6033336;23;20022;-71
2023/02/13 02:38:43;;;;;;;7.72;6.55;;;;;;;7.25;100.00;103240.28;6051074;23;20442;-72
2023/02/13 02:41:41;;;;;;;7.53;6.68;;;;;;;6.69;100.00;103134.81;6037427;23;20050;-70
2023/02/13 02:44:41;;;;;;;6.80;6.10;;;;;;;7.26;100.00;103234.22;6046371;23;20081;-72
2023/02/13 02:50:13;;;;;;;13.55;6.78;;;;;;;7.22;100.00;103232.44;6053268;23;20022;-72
2023/02/13 02:53:01;;;;;;;8.68;6.22;;;;;;;7.27;100.00;103228.97;6055046;23;20088;-71
2023/02/13 02:55:36;;;;;;;6.90;6.03;;;;;;;7.24;100.00;103223.75;6052579;23;21217;-71
2023/02/13 03:06:56;;;;;;;8.65;5.70;;;;;;;7.15;100.00;103227.19;6050348;23;20113;-71
2023/02/13 03:15:04;;;;;;;8.52;6.80;;;;;;;7.19;100.00;103233.31;6055740;23;20042;-71
2023/02/13 03:23:41;;;;;;;7.90;6.45;;;;;;;7.19;100.00;103233.31;6046658;23;20498;-71
2023/02/13 03:26:44;;;;;;;6.22;5.32;;;;;;;7.22;100.00;103233.34;6023583;23;20080;-69
2023/02/13 03:32:25;;;;;;;6.88;6.28;;;;;;;6.77;100.00;103162.69;6037437;23;20649;-70
2023/02/13 03:38:50;;;;;;;8.57;7.65;;;;;;;6.73;100.00;103173.97;5905219;24;20033;-71
2023/02/13 03:41:28;;;;;;;7.95;7.20;;;;;;;6.62;100.00;103154.81;5912980;24;20072;-72
2023/02/13 03:44:00;;;;;;;8.43;7.25;;;;;;;7.00;100.00;103224.56;6004226;23;20022;-72
2023/02/13 03:46:32;;;;;;;6.55;6.03;;;;;;;6.99;100.00;103222.81;6027877;23;20054;-72
2023/02/13 03:52:08;;;;;;;9.73;5.88;;;;;;;6.04;100.00;103068.50;6045437;23;20721;-71
2023/02/13 04:00:28;;;;;;;8.15;6.85;;;;;;;6.57;100.00;103175.69;6024004;23;20085;-72
2023/02/13 04:03:04;;;;;;;7.35;6.53;;;;;;;6.89;100.00;103252.34;6054264;23;20413;-71
2023/02/13 04:05:38;;;;;;;8.30;6.75;;;;;;;6.83;100.00;103229.69;6048308;23;20025;-70
2023/02/13 04:08:04;;;;;;;9.70;7.78;;;;;;;6.62;100.00;103185.28;6019258;23;20031;-71
2023/02/13 04:10:34;;;;;;;6.80;6.15;;;;;;;6.54;100.00;103187.84;6042111;23;20017;-72
2023/02/13 04:13:26;;;;;;;8.07;7.28;;;;;;;6.86;100.00;103227.13;6038708;23;20041;-72
2023/02/13 04:15:57;;;;;;;9.93;6.88;;;;;;;6.83;100.00;103223.63;6057632;23;20092;-70
2023/02/13 04:18:29;;;;;;;6.13;5.53;;;;;;;6.32;100.00;103152.94;6057771;23;20046;-71
2023/02/13 04:20:55;;;;;;;;;;;;;;;6.83;100.00;103227.09;6055135;23;20030;-72
2023/02/13 04:23:22;;;;;;;10.23;6.88;;;;;;;6.08;100.00;103109.38;6029065;23;19998;-72
2023/02/13 04:25:51;;;;;;;6.50;5.88;;;;;;;6.48;100.00;103187.81;6053665;23;20052;-71
2023/02/13 04:28:17;;;;;;;8.35;6.10;;;;;;;6.77;100.00;103233.16;6028370;23;20662;-71
2023/02/13 04:30:44;;;;;;;6.45;5.82;;;;;;;6.73;100.00;103233.13;6033680;23;20036;-70
2023/02/13 04:33:11;;;;;;;12.27;7.63;;;;;;;6.33;100.00;103165.97;6055346;23;20037;-71
2023/02/13 04:35:37;;;;;;;11.07;6.63;;;;;;;6.13;100.00;103158.06;6032856;23;20039;-72
2023/02/13 04:38:03;;;;;;;9.05;7.53;;;;;;;6.59;100.00;103227.84;6057281;23;20084;-71
2023/02/13 04:40:30;;;;;;;6.05;5.50;;;;;;;6.56;100.00;103233.94;6056516;23;20690;-71
2023/02/13 04:42:56;;;;;;;5.63;5.30;;;;;;;6.45;100.00;103221.69;6052366;23;20029;-71
2023/02/13 04:45:23;;;;;;;8.13;6.85;;;;;;;6.53;100.00;103235.66;6052505;23;20022;-71
2023/02/13 04:47:51;;;;;;;7.88;5.93;;;;;;;6.10;100.00;103159.78;6024834;23;20089;-73
2023/02/13 04:50:18;;;;;;;7.22;6.32;;;;;;;6.50;100.00;103226.06;6051499;23;20035;-71
2023/02/13 04:52:44;;;;;;;6.45;5.88;;;;;;;6.02;100.00;103151.03;6052071;23;20033;-71
2023/02/13 04:55:11;;;;;;;11.15;6.70;;;;;;;6.48;100.00;103237.38;6036536;23;20042;-71
2023/02/13 04:57:38;;;;;;;7.65;5.80;;;;;;;6.10;100.00;103198.88;6026623;23;20018;-73
2023/02/13 05:00:06;;;;;;;7.07;6.47;;;;;;;6.39;100.00;103226.03;6052359;23;20097;-70
2023/02/13 05:02:32;;;;;;;7.15;6.55;;;;;;;6.27;100.00;103206.81;6029514;23;20030;-70
2023/02/13 05:04:59;;;;;;;10.70;6.07;;;;;;;6.30;100.00;103225.94;6032441;23;20033;-72
2023/02/13 05:07:25;;;;;;;7.18;6.47;;;;;;;6.26;100.00;103225.94;6049496;23;20046;-73
2023/02/13 05:09:52;;;;;;;7.78;6.85;;;;;;;5.24;100.00;103041.91;6029286;23;20503;-71
2023/02/13 05:12:18;;;;;;;12.23;6.68;;;;;;;6.30;100.00;103219.88;6049337;23;21118;-72
2023/02/13 05:14:45;;;;;;;7.05;6.55;;;;;;;5.98;100.00;103157.97;6055757;23;20100;-71
2023/02/13 05:17:11;;;;;;;6.65;6.05;;;;;;;6.32;100.00;103224.22;6027233;23;20031;-72
2023/02/13 05:19:37;;;;;;;10.18;6.75;;;;;;;6.08;100.00;103177.16;6026644;23;20080;-71
2023/02/13 05:24:49;;;;;;;7.68;6.90;;;;;;;6.08;100.00;103196.25;6026518;23;20022;-71
2023/02/13 05:27:15;;;;;;;14.75;6.88;;;;;;;5.12;100.00;103043.53;6028143;23;20039;-71
2023/02/13 05:29:42;;;;;;;6.88;6.07;;;;;;;5.82;100.00;103183.00;6054640;23;20095;-71
2023/02/13 05:32:08;;;;;;;7.30;6.35;;;;;;;5.92;100.00;103217.84;6039271;23;20034;-72
2023/02/13 05:34:35;;;;;;;11.90;6.70;;;;;;;5.80;100.00;103197.75;6053994;23;20056;-71
2023/02/13 05:37:01;;;;;;;9.45;7.30;;;;;;;5.35;100.00;103129.66;6003981;23;20030;-70
2023/02/13 05:39:27;;;;;;;9.32;8.15;;;;;;;5.87;100.00;103219.50;6011946;23;20380;-71
2023/02/13 05:41:54;;;;;;;6.60;6.10;;;;;;;5.38;100.00;103142.69;6054827;23;20019;-73
2023/02/13 05:44:20;;;;;;;7.55;5.93;;;;;;;5.57;100.00;103195.84;6055441;23;20014;-71
2023/02/13 05:46:48;;;;;;;8.90;6.35;;;;;;;5.39;100.00;103170.50;6027123;23;20469;-71
2023/02/13 05:49:15;;;;;;;12.10;6.15;;;;;;;5.58;100.00;103210.59;6055816;23;20142;-73
2023/02/13 05:51:42;;;;;;;6.45;5.95;;;;;;;4.04;100.00;102957.53;6035909;23;20026;-71
2023/02/13 05:54:08;;;;;;;7.53;6.85;;;;;;;5.01;100.00;103131.06;6048111;23;20022;-70
2023/02/13 05:56:34;;;;;;;7.53;6.78;;;;;;;5.45;100.00;103213.94;6050276;23;20034;-70
2023/02/13 05:59:01;;;;;;;9.50;6.72;;;;;;;5.10;100.00;103156.31;6051012;23;20609;-70
2023/02/13 06:01:27;;;;;;;10.55;6.60;;;;;;;5.35;100.00;103205.19;6056287;23;20026;-70
2023/02/13 06:03:53;;;;;;;8.82;6.43;;;;;;;4.88;100.00;103147.41;6024195;23;20027;-71
2023/02/13 06:06:24;;;;;;;7.70;6.80;;;;;;;4.87;100.00;103135.25;6029818;23;20220;-71
2023/02/13 06:08:51;;;;;;;9.57;5.93;;;;;;;5.19;100.00;103211.97;6050966;23;20084;-71
2023/02/13 06:11:17;;;;;;;8.48;7.13;;;;;;;4.75;100.00;103122.97;6017963;23;20053;-70
2023/02/13 06:13:44;;;;;;;8.27;6.68;;;;;;;4.62;100.00;103118.50;6043452;23;20054;-70
2023/02/13 06:16:11;;;;;;;14.10;8.30;;;;;;;5.09;100.00;103204.00;6026793;23;20015;-70
2023/02/13 06:18:38;;;;;;;8.02;5.97;;;;;;;4.92;100.00;103178.69;6024500;23;20038;-70
2023/02/13 06:21:06;;;;;;;8.68;7.45;;;;;;;4.73;100.00;103162.00;6052848;23;20025;-71
2023/02/13 06:23:32;;;;;;;8.25;7.55;;;;;;;4.48;100.00;103133.94;6024065;23;20086;-73
2023/02/13 06:26:06;;;;;;;13.18;5.45;;;;;;;4.68;100.00;103171.47;6043728;23;20026;-72
2023/02/13 06:28:33;;;;;;;6.63;6.03;;;;;;;4.80;100.00;103207.16;6049214;23;20034;-71
2023/02/13 06:31:00;;;;;;;11.05;7.68;;;;;;;4.63;100.00;103165.34;6045521;23;20551;-72
2023/02/13 06:33:27;;;;;;;7.18;6.50;;;;;;;4.74;100.00;103189.75;6056825;23;20065;-71
2023/02/13 06:35:53;;;;;;;16.63;7.32;;;;;;;4.10;100.00;103069.34;6059040;23;20026;-71
2023/02/13 06:38:20;;;;;;;10.57;6.75;;;;;;;4.40;100.00;103118.25;6057570;23;20018;-72
2023/02/13 06:40:48;;;;;;;5.72;5.28;;;;;;;4.37;100.00;103115.59;6060686;23;20035;-70
2023/02/13 06:43:15;;;;;;;7.47;6.72;;;;;;;4.51;100.00;103142.66;6055498;23;20137;-70
2023/02/13 06:45:41;;;;;;;7.00;6.40;;;;;;;4.78;100.00;103186.31;6070598;23;20026;-70
2023/02/13 06:48:10;;;;;;;11.75;6.72;;;;;;;4.75;100.00;103175.91;6062524;23;20063;-70
2023/02/13 06:50:37;;;;;;;7.93;5.82;;;;;;;4.14;100.00;103071.13;6056749;23;20844;-71
2023/02/13 06:53:03;;;;;;;6.18;5.30;;;;;;;4.79;100.00;103181.97;6065792;23;20033;-70
2023/02/13 06:55:29;;;;;;;11.40;8.88;;;;;;;4.33;100.00;103114.69;6062869;23;20018;-70
2023/02/13 06:57:56;;;;;;;8.98;6.85;;;;;;;4.68;100.00;103168.84;6054054;23;20455;-70
2023/02/13 07:00:22;;;;;;;8.70;7.03;;;;;;;4.79;100.00;103185.47;6040979;23;20037;-72
2023/02/13 07:02:52;;;;;;;7.88;6.18;;;;;;;4.35;100.00;103107.78;6062432;23;20113;-71
2023/02/13 07:05:18;;;;;;;7.28;6.57;;;;;;;4.22;100.00;103086.81;6062071;23;20010;-70
2023/02/13 07:07:45;;;;;;;7.68;6.47;;;;;;;4.77;100.00;103170.69;6059783;23;20097;-71
2023/02/13 07:10:13;;;;;;;7.40;6.43;;;;;;;4.32;100.00;103107.75;6059272;23;20330;-71
2023/02/13 07:12:40;;;;;;;10.98;7.63;;;;;;;4.66;100.00;103146.28;6030774;23;20179;-71
2023/02/13 07:15:07;;;;;;;6.18;5.68;;;;;;;3.38;100.00;102944.59;6059907;23;20030;-71
2023/02/13 07:17:33;;;;;;;8.48;6.50;;;;;;;4.80;100.00;103183.75;6031907;23;20077;-71
2023/02/13 07:20:00;;;;;;;8.15;6.10;;;;;;;4.84;100.00;103195.06;6062685;23;20034;-72
2023/02/13 07:22:26;;;;;;;7.03;6.35;;;;;;;4.48;100.00;103113.13;6031877;23;20034;-71
2023/02/13 07:24:53;;;;;;;9.68;5.97;;;;;;;4.86;100.00;103168.19;6065124;23;20033;-72
2023/02/13 07:27:19;;;;;;;7.90;6.78;;;;;;;4.92;100.00;103178.69;6058811;23;20030;-71
2023/02/13 07:29:45;;;;;;;6.13;5.53;;;;;;;4.45;100.00;103105.28;6056432;23;20018;-71
2023/02/13 07:32:12;;;;;;;8.98;6.13;;;;;;;4.16;100.00;103044.28;6032064;23;20039;-70
2023/02/13 07:34:38;;;;;;;7.55;6.53;;;;;;;4.99;100.00;103174.41;6058368;23;20052;-70
2023/02/13 07:37:14;;;;;;;5.82;5.32;;;;;;;4.09;100.00;103039.91;6059392;23;20802;-71
2023/02/13 07:39:40;;;;;;;8.32;7.18;;;;;;;5.14;100.00;103179.78;6064004;23;20044;-71
2023/02/13 07:42:07;;;;;;;5.90;5.25;;;;;;;5.12;100.00;103183.25;6061881;23;20043;-70
2023/02/13 07:44:36;;;;;;;8.57;6.18;;;;;;;5.14;100.00;103174.59;6054815;23;20085;-70
2023/02/13 07:47:03;;;;;;;8.52;6.10;;;;;;;4.55;100.00;103068.13;6040773;23;20068;-70
2023/02/13 07:49:29;;;;;;;14.60;6.55;;;;;;;4.89;100.00;103120.53;6032061;23;20106;-69
2023/02/13 07:51:57;;;;;;;7.35;5.75;;;;;;;5.17;100.00;103179.84;6027143;23;20029;-69
2023/02/13 07:54:23;;;;;;;6.60;5.88;;;;;;;5.40;100.00;103192.19;6039012;23;20183;-69
2023/02/13 07:56:50;;;;;;;10.98;7.10;;;;;;;5.38;100.00;103189.56;6058619;23;20119;-69
2023/02/13 07:59:16;;;;;;;10.60;7.60;;;;;;;5.51;100.00;103195.78;6037743;23;20090;-69
2023/02/13 08:01:42;;;;;;;7.70;6.95;;;;;;;5.27;100.00;103138.25;6034583;23;20054;-69
2023/02/13 08:04:09;;;;;;;13.70;7.88;;;;;;;5.23;100.00;103128.66;6060854;23;20104;-70
2023/02/13 08:06:38;;;;;;;7.90;6.05;;;;;;;5.44;100.00;103151.44;6039421;23;20038;-70
2023/02/13 08:11:54;;;;;;;6.65;5.70;;;;;;;5.48;100.00;103146.25;6059072;23;20022;-71
2023/02/13 08:14:26;;;;;;;6.65;6.07;;;;;;;5.71;100.00;103158.59;6034781;23;20520;-70
2023/02/13 08:16:57;;;;;;;9.60;6.68;;;;;;;5.94;100.00;103201.34;6058526;23;20121;-70
2023/02/13 08:19:23;;;;;;;7.38;6.72;;;;;;;6.04;100.00;103204.06;6024283;23;20085;-70
2023/02/13 08:21:50;;;;;;;6.40;5.55;;;;;;;6.11;100.00;103201.47;6037787;23;20391;-70
2023/02/13 08:24:16;;;;;;;6.50;6.00;;;;;;;5.72;100.00;103137.75;6064752;23;20590;-72
2023/02/13 08:26:43;;;;;;;7.43;6.63;;;;;;;6.22;100.00;103204.19;6034482;23;20019;-72
2023/02/13 08:29:10;;;;;;;10.23;7.85;;;;;;;6.27;100.00;103205.06;6033842;23;20018;-71
2023/02/13 08:31:36;;;;;;;8.13;7.00;;;;;;;6.38;100.00;103206.00;6054223;23;20058;-70
2023/02/13 08:34:03;;;;;;;6.55;6.00;;;;;;;5.98;100.00;103119.72;6039068;23;20248;-72
2023/02/13 08:36:30;;;;;;;11.48;7.47;;;;;;;6.57;100.00;103207.00;6058097;23;20082;-68
2023/02/13 08:38:56;;;;;;;9.27;6.57;;;;;;;6.23;100.00;103145.06;6044437;23;20043;-70
2023/02/13 08:41:23;;;;;;;6.47;5.88;;;;;;;6.69;100.00;103211.38;6060551;23;20085;-69
2023/02/13 08:43:49;;;;;;;8.43;6.85;;;;;;;6.75;100.00;103213.13;6037386;23;20124;-69
2023/02/13 08:46:17;;;;;;;9.20;7.68;;;;;;;6.85;100.00;103220.13;6054334;23;20035;-70
2023/02/13 08:48:43;;;;;;;7.30;6.60;;;;;;;6.94;100.00;103224.53;6032514;23;20033;-69
2023/02/13 08:51:12;;;;;;;7.60;6.90;;;;;;;6.95;100.00;103234.09;6050578;23;20026;-74
2023/02/13 08:53:39;;;;;;;14.50;6.00;;;;;;;6.66;100.00;103169.63;6034999;23;20132;-75
2023/02/13 08:56:06;;;;;;;10.48;6.57;;;;;;;7.13;100.00;103230.69;6061873;23;20038;-74
2023/02/13 08:58:32;;;;;;;9.05;7.35;;;;;;;6.31;100.00;103086.84;6040563;23;20031;-75
2023/02/13 09:00:59;;;;;;;8.45;7.47;;;;;;;7.13;100.00;103215.88;6046666;23;20031;-75
2023/02/13 09:03:25;;;;;;;9.15;7.00;;;;;;;6.89;100.00;103168.81;6061997;23;20030;-75
2023/02/13 09:05:52;;;;;;;7.28;6.13;;;;;;;6.25;100.00;103037.28;6035624;23;20023;-76
2023/02/13 09:08:18;;;;;;;7.20;6.25;;;;;;;7.47;100.00;103249.91;6031182;23;20034;-75
2023/02/13 09:10:45;;;;;;;9.82;6.15;;;;;;;7.52;100.00;103256.03;6068127;23;20030;-75
2023/02/13 09:13:11;;;;;;;10.00;7.25;;;;;;;7.28;100.00;103207.22;6033869;23;20055;-74
2023/02/13 09:15:39;;;;;;;6.88;6.38;;;;;;;7.68;100.00;103238.63;6053732;23;20534;-71
2023/02/13 09:18:06;;;;;;;8.10;6.65;;;;;;;7.70;100.00;103229.06;6054878;23;20022;-72
2023/02/13 09:20:33;;;;;;;14.77;7.63;;;;;;;7.38;100.00;103159.34;6011031;23;20032;-71
2023/02/13 09:23:01;;;;;;;7.88;6.80;;;;;;;7.59;100.00;103188.97;6013962;23;20492;-71
2023/02/13 09:25:28;;;;;;;7.53;6.70;;;;;;;7.86;100.00;103229.94;6035450;23;20019;-73
2023/02/13 09:27:54;;;;;;;10.30;8.15;;;;;;;7.39;100.00;103144.53;6052643;23;20034;-74
2023/02/13 09:30:23;;;;;;;6.25;5.03;;;;;;;7.23;100.00;103122.75;6056438;23;20037;-74
2023/02/13 09:32:52;;;;;;;12.57;7.53;;;;;;;8.01;100.00;103220.34;6025798;23;20537;-76
2023/02/13 09:35:20;;;;;;;7.82;6.90;;;;;;;7.75;100.00;103174.16;6055883;23;20112;-75
2023/02/13 09:37:46;;;;;;;9.90;6.60;;;;;;;7.69;100.00;103145.41;6007309;23;20042;-75
2023/02/13 09:40:27;;;;;;;7.13;6.07;;;;;;;7.89;100.00;103164.53;6030251;23;20078;-74
2023/02/13 09:43:05;;;;;;;6.80;6.15;;;;;;;7.37;99.28;103062.69;6060146;23;20119;-74
2023/02/13 09:45:33;;;;;;;19.77;7.47;;;;;;;7.92;98.87;103156.72;6027836;23;20044;-74
2023/02/13 09:47:59;;;;;;;7.32;6.63;;;;;;;7.31;98.04;103037.44;6052456;23;20431;-73
2023/02/13 09:50:32;;;;;;;8.15;6.15;;;;;;;8.44;97.91;103231.63;6048039;23;20139;-73
2023/02/13 09:52:59;;;;;;;12.68;7.75;;;;;;;8.59;97.01;103212.38;6053857;23;20038;-74
2023/02/13 09:55:39;;;;;;;7.38;6.28;;;;;;;8.61;95.99;103197.53;6025431;23;20027;-73
2023/02/13 09:58:19;;;;;;;6.95;6.38;;;;;;;8.14;93.88;103101.75;6054450;23;20030;-73
2023/02/13 10:00:52;;;;;;;7.32;6.38;;;;;;;8.73;93.30;103183.53;6028535;23;20031;-73
2023/02/13 10:03:39;;;;;;;10.27;6.53;;;;;;;8.89;92.24;103200.03;6032424;23;20194;-74
2023/02/13 10:06:18;;;;;;;9.80;5.93;;;;;;;9.01;90.76;103186.03;6007778;23;20042;-74
2023/02/13 10:08:52;;;;;;;7.80;7.10;;;;;;;8.72;89.26;103135.56;6036437;23;20042;-74
2023/02/13 10:11:47;;;;;;;6.88;6.20;;;;;;;9.16;88.91;103163.22;6054777;23;20049;-74
2023/02/13 10:14:31;;;;;;;7.10;6.45;;;;;;;9.37;88.45;103177.06;5982595;23;20014;-75
2023/02/13 10:17:05;;;;;;;8.85;6.25;;;;;;;9.41;86.88;103152.56;6058965;23;20030;-73
2023/02/13 10:19:41;;;;;;;7.53;6.18;;;;;;;8.97;85.23;103046.34;6059226;23;20112;-74
2023/02/13 10:22:22;;;;;;;9.35;6.18;;;;;;;9.50;83.71;103135.88;6034390;23;20034;-76
2023/02/13 10:24:54;;;;;;;7.75;6.55;;;;;;;9.61;82.86;103138.41;6049331;23;20026;-74
2023/02/13 10:27:29;;;;;;;8.10;6.38;;;;;;;9.36;82.18;103075.72;6057158;23;20030;-73
2023/02/13 10:30:32;;;;;;;7.55;5.85;;;;;;;9.71;81.52;103119.97;6036268;23;20130;-74
2023/02/13 10:33:25;;;;;;;6.33;5.73;;;;;;;9.67;81.66;103114.75;6034544;23;20038;-74
2023/02/13 10:36:21;;;;;;;7.25;6.50;;;;;;;9.39;82.74;103031.16;6063489;23;20402;-73
2023/02/13 10:39:24;;;;;;;8.95;6.82;;;;;;;9.94;81.61;103080.41;6026382;23;20018;-74
2023/02/13 10:42:02;;;;;;;7.35;6.30;;;;;;;10.26;78.92;103101.88;6016600;23;20041;-76
2023/02/13 10:44:46;;;;;;;7.55;6.55;;;;;;;9.41;77.90;102934.16;6033951;23;20722;-74
2023/02/13 10:47:52;;;;;;;7.28;6.18;;;;;;;10.59;76.86;103103.25;6056170;23;20027;-75
2023/02/13 10:50:50;;;;;;;9.27;7.47;;;;;;;10.83;76.34;103088.03;6059371;23;20402;-73
2023/02/13 10:53:49;;;;;;;6.82;6.28;;;;;;;10.93;75.00;103060.72;6059788;23;20511;-73
2023/02/13 10:56:25;;;;;;;12.07;6.45;;;;;;;10.91;73.25;103036.25;6034301;23;20016;-72
2023/02/13 10:59:10;;;;;;;6.97;6.35;;;;;;;10.82;72.84;103010.97;6035644;23;20046;-71
2023/02/13 11:01:46;;;;;;;7.60;6.25;;;;;;;10.92;72.50;103019.56;6033025;23;20026;-73
2023/02/13 11:04:16;;;;;;;9.20;6.60;;;;;;;10.50;71.96;102937.94;6061779;23;20018;-74
2023/02/13 11:07:11;;;;;;;6.68;6.18;;;;;;;10.98;72.17;103003.69;6058423;23;20054;-71
2023/02/13 11:09:44;;;;;;;10.07;7.40;;;;;;;10.48;72.35;102911.72;6031648;23;20043;-73
2023/02/13 11:12:25;;;;;;;6.50;5.90;;;;;;;10.77;72.23;102949.78;6056890;23;20205;-72
2023/02/13 11:15:07;;;;;;;7.93;7.13;;;;;;;10.91;71.92;102965.31;6027423;23;20359;-73
2023/02/13 11:17:35;;;;;;;9.50;7.18;;;;;;;11.20;71.72;102959.50;6028276;23;20019;-73
2023/02/13 11:20:31;;;;;;;9.02;7.47;;;;;;;11.48;70.24;102964.25;6033072;23;20019;-73
2023/02/13 11:23:19;;;;;;;9.85;8.32;;;;;;;11.58;70.56;102985.06;6057676;23;20030;-71
2023/02/13 11:26:10;;;;;;;7.90;7.03;;;;;;;11.21;69.76;102865.78;6057932;23;20030;-74
2023/02/13 11:28:56;;;;;;;8.10;6.85;;;;;;;11.47;69.94;102902.91;6056114;23;20030;-71
2023/02/13 11:31:29;;;;;;;7.50;6.70;;;;;;;11.75;68.61;102903.19;6058068;23;20431;-73
2023/02/13 11:33:57;;;;;;;9.00;6.75;;;;;;;11.75;68.05;102850.59;6049730;23;20039;-72
2023/02/13 11:36:33;;;;;;;6.95;6.28;;;;;;;12.26;67.51;102907.31;6063196;23;20496;-73
2023/02/13 11:39:17;;;;;;;9.23;6.68;;;;;;;12.18;67.01;102854.00;6021292;23;20165;-72
2023/02/13 11:41:45;;;;;;;10.13;7.18;;;;;;;12.35;65.22;102840.44;6056979;23;20042;-73
2023/02/13 11:44:25;;;;;;;9.45;6.88;;;;;;;11.98;64.67;102804.47;6061548;23;20486;-72
2023/02/13 11:46:53;;;;;;;9.68;5.97;;;;;;;12.04;65.68;102816.63;6042845;23;20026;-72
2023/02/13 11:49:29;;;;;;;8.70;7.18;;;;;;;12.06;65.82;102825.34;6057250;23;20101;-72
2023/02/13 11:52:01;;;;;;;7.50;6.82;;;;;;;10.89;65.74;102628.22;6059198;23;20093;-73
2023/02/13 11:54:27;;;;;;;8.10;7.30;;;;;;;12.27;66.12;102822.19;6027885;23;20088;-72
2023/02/13 11:56:57;;;;;;;8.90;6.93;;;;;;;11.96;65.68;102759.78;6044065;23;20076;-72
2023/02/13 11:59:38;;;;;;;6.18;5.72;;;;;;;12.29;66.01;102807.22;6022618;23;20034;-72
2023/02/13 12:02:13;;;;;;;7.25;6.55;;;;;;;11.86;64.57;102696.88;6057370;23;20038;-74
2023/02/13 12:04:39;;;;;;;8.98;6.85;;;;;;;12.43;63.90;102772.63;6054406;23;20286;-73
2023/02/13 12:07:21;;;;;;;7.13;6.20;;;;;;;12.54;63.83;102764.44;6060569;23;20384;-73
2023/02/13 12:09:56;;;;;;;8.10;6.88;;;;;;;12.38;63.98;102727.13;6044189;23;20492;-73
2023/02/13 12:12:30;;;;;;;7.63;6.80;;;;;;;11.44;63.67;102549.81;6055878;23;20022;-73
2023/02/13 12:15:00;;;;;;;7.57;6.68;;;;;;;12.47;62.79;102691.75;6033962;23;20060;-73
2023/02/13 12:17:29;;;;;;;6.88;6.22;;;;;;;12.74;62.88;102716.47;6059074;23;20030;-72
2023/02/13 12:19:58;;;;;;;9.32;7.10;;;;;;;12.46;62.00;102654.03;6057545;23;20176;-73
2023/02/13 12:22:45;;;;;;;9.10;6.75;;;;;;;12.81;61.85;102696.06;6054117;23;20565;-73
2023/02/13 12:25:39;;;;;;;7.10;6.57;;;;;;;13.12;61.90;102717.09;6030240;23;20025;-73
2023/02/13 12:28:13;;;;;;;7.20;6.50;;;;;;;12.83;61.94;102650.31;6052178;23;20043;-73